Time;durP1;ratioP1;P1;durP2;ratioP2;P2;SDS_P1;SDS_P2;PMS_P1;PMS_P2;Temp;Humidity;BMP_temperature;BMP_pressure;BME280_temperature;BME280_humidity;BME280_pressure;Samples;Min_cycle;Max_cycle;Signal;HPM_P1;HPM_P2
2022/08/01 00:02:38;;;;;;;;;1.00;1.00;;;;;22.18;100.00;101470.34;4938505;28;44898;-94
2022/08/01 00:05:39;;;;;;;;;1.00;1.00;;;;;22.18;100.00;101469.50;4892111;28;44770;-93
2022/08/01 00:11:26;;;;;;;;;0.60;0.60;;;;;22.09;100.00;101468.56;5220975;23;45301;-89
2022/08/01 00:13:53;;;;;;;;;2.00;2.00;;;;;22.10;100.00;101475.69;4928752;28;45123;-89
2022/08/01 00:16:22;;;;;;;;;2.00;2.00;;;;;22.05;100.00;101478.03;4925374;28;45432;-89
2022/08/01 00:19:17;;;;;;;;;1.00;1.00;;;;;21.98;100.00;101476.97;4937193;28;45430;-94
2022/08/01 00:22:17;;;;;;;;;1.00;1.00;;;;;21.96;100.00;101460.91;4941740;28;44964;-95
2022/08/01 00:24:57;;;;;;;;;0.00;0.00;;;;;21.98;100.00;101469.69;4945039;28;44993;-95
2022/08/01 00:28:09;;;;;;;;;1.00;1.00;;;;;21.93;100.00;101452.25;4926917;28;44826;-94
2022/08/01 00:30:35;;;;;;;;;0.00;0.00;;;;;21.99;100.00;101463.25;4923744;28;45331;-90
2022/08/01 00:33:01;;;;;;;;;1.00;1.00;;;;;22.00;100.00;101459.56;4940957;28;44860;-89
2022/08/01 00:35:27;;;;;;;;;1.00;1.00;;;;;;;;4946558;28;45242;-89
2022/08/01 00:37:52;;;;;;;;;0.75;0.75;;;;;22.01;100.00;101455.84;4937647;28;44817;-90
2022/08/01 00:40:17;;;;;;;;;1.00;1.00;;;;;;;;4931810;28;45281;-90
2022/08/01 00:42:43;;;;;;;;;0.25;0.25;;;;;21.97;100.00;101448.22;4934262;28;44944;-89
2022/08/01 00:45:09;;;;;;;;;1.00;1.00;;;;;21.96;100.00;101452.78;4933462;28;45217;-90
2022/08/01 00:47:34;;;;;;;;;1.00;1.00;;;;;21.93;100.00;101452.25;4933581;28;44601;-90
2022/08/01 00:50:00;;;;;;;;;1.00;1.00;;;;;21.94;100.00;101457.47;4930596;28;44637;-90
2022/08/01 00:52:25;;;;;;;;;1.00;1.00;;;;;21.91;100.00;101451.56;4928696;28;44843;-88
2022/08/01 00:54:51;;;;;;;;;2.75;2.00;;;;;21.94;100.00;101452.06;4939447;28;45252;-89
2022/08/01 00:57:17;;;;;;;;;0.00;0.00;;;;;21.95;100.00;101452.91;4942661;28;44792;-89
2022/08/01 00:59:42;;;;;;;;;1.00;1.00;;;;;21.91;100.00;101438.88;4938087;28;44867;-89
2022/08/01 01:02:08;;;;;;;;;0.25;0.25;;;;;21.94;100.00;101443.09;4935550;28;44735;-90
2022/08/01 01:04:33;;;;;;;;;2.00;1.00;;;;;21.86;100.00;101446.63;4939224;28;45120;-89
2022/08/01 01:07:10;;;;;;;;;1.00;1.00;;;;;21.86;100.00;101440.38;4942894;28;44759;-89
2022/08/01 01:09:58;;;;;;;;;0.00;0.00;;;;;21.91;100.00;101446.16;4932250;28;44731;-91
2022/08/01 01:12:47;;;;;;;;;0.60;0.60;;;;;21.89;100.00;101446.28;4917670;28;44789;-90
2022/08/01 01:15:41;;;;;;;;;0.20;0.20;;;;;21.90;100.00;101444.44;4937905;28;45010;-89
2022/08/01 01:18:14;;;;;;;;;1.40;1.00;;;;;21.89;100.00;101440.88;4934011;28;44632;-90
2022/08/01 01:20:45;;;;;;;;;0.80;0.80;;;;;21.87;100.00;101442.06;4930335;28;44773;-89
2022/08/01 01:23:24;;;;;;;;;3.00;1.00;;;;;21.87;100.00;101434.78;4932223;28;44920;-90
2022/08/01 01:26:02;;;;;;;;;0.00;0.00;;;;;21.86;100.00;101433.09;4931526;28;45312;-89
2022/08/01 01:29:02;;;;;;;;;0.40;0.40;;;;;21.86;100.00;101441.22;4928661;28;44676;-89
2022/08/01 01:31:32;;;;;;;;;1.00;1.00;;;;;21.85;100.00;101441.34;4926043;28;44835;-90
2022/08/01 01:34:02;;;;;;;;;1.20;1.20;;;;;21.83;100.00;101441.53;4926385;28;44705;-90
2022/08/01 01:36:30;;;;;;;;;0.00;0.00;;;;;21.84;100.00;101443.22;4923841;28;45386;-90
2022/08/01 01:38:56;;;;;;;;;1.00;1.00;;;;;21.84;100.00;101440.50;4940087;28;44823;-90
2022/08/01 01:41:24;;;;;;;;;0.40;0.40;;;;;21.78;100.00;101442.00;4945601;28;44709;-90
2022/08/01 01:43:50;;;;;;;;;0.00;0.00;;;;;21.79;100.00;101440.13;4953128;28;44986;-89
2022/08/01 01:46:23;;;;;;;;;1.00;1.00;;;;;21.83;100.00;101446.94;4970058;28;46833;-90
2022/08/01 01:48:50;;;;;;;;;2.00;0.80;;;;;21.84;100.00;101429.69;4959092;28;45273;-90
2022/08/01 01:51:17;;;;;;;;;0.00;0.00;;;;;21.83;100.00;101430.69;4944481;28;44752;-90
2022/08/01 01:53:44;;;;;;;;;1.00;1.00;;;;;21.82;100.00;101429.00;4951307;28;44774;-90
2022/08/01 01:56:11;;;;;;;;;0.00;0.00;;;;;21.85;100.00;101431.38;4949268;28;45166;-90
2022/08/01 01:58:39;;;;;;;;;0.20;0.20;;;;;21.80;100.00;101431.84;4965431;28;44731;-89
2022/08/01 02:01:06;;;;;;;;;0.60;0.60;;;;;21.76;100.00;101429.66;4954814;28;44775;-90
2022/08/01 02:03:36;;;;;;;;;1.00;1.00;;;;;21.78;100.00;101427.63;4950393;28;44965;-90
2022/08/01 02:06:03;;;;;;;;;1.00;1.00;;;;;21.72;100.00;101431.81;4949085;28;46916;-90
2022/08/01 02:12:13;;;;;;;;;1.00;1.00;;;;;21.70;100.00;101425.69;4959197;28;44794;-95
2022/08/01 02:15:14;;;;;;;;;1.40;0.20;;;;;21.72;100.00;101430.97;4952710;28;44807;-94
2022/08/01 02:28:22;;;;;;;;;1.00;1.00;;;;;21.61;100.00;101425.78;4960671;28;44764;-94
2022/08/01 02:34:59;;;;;;;;;1.60;0.00;;;;;21.58;100.00;101420.72;4966300;28;44695;-94
2022/08/01 02:41:37;;;;;;;;;1.00;1.00;;;;;21.62;100.00;101432.94;4964892;28;45228;-95
2022/08/01 02:44:34;;;;;;;;;0.00;0.00;;;;;21.62;100.00;101436.47;4943617;28;45611;-95
2022/08/01 02:49:44;;;;;;;;;1.00;1.00;;;;;21.54;100.00;101428.28;5069474;23;46081;-90
2022/08/01 02:52:14;;;;;;;;;0.00;0.00;;;;;21.58;100.00;101435.09;4936889;28;44909;-90
2022/08/01 02:54:41;;;;;;;;;1.60;1.60;;;;;21.60;100.00;101427.66;4927054;28;46610;-90
2022/08/01 02:57:08;;;;;;;;;1.00;1.00;;;;;21.58;100.00;101435.09;4921095;28;45276;-90
2022/08/01 02:59:37;;;;;;;;;1.00;1.00;;;;;21.61;100.00;101431.19;4920533;28;44872;-90
2022/08/01 03:02:05;;;;;;;;;2.00;2.00;;;;;21.63;100.00;101423.81;4922310;28;45308;-90
2022/08/01 03:04:33;;;;;;;;;0.60;0.60;;;;;21.63;100.00;101426.50;4920494;28;46990;-90
2022/08/01 03:07:42;;;;;;;;;2.00;0.80;;;;;21.69;100.00;101425.88;4928896;28;44821;-95
2022/08/01 03:10:40;;;;;;;;;1.00;1.00;;;;;21.68;100.00;101422.31;4916449;29;44801;-94
2022/08/01 03:13:57;;;;;;;;;0.00;0.00;;;;;21.63;100.00;101426.50;4908304;29;44930;-94
2022/08/01 03:19:01;;;;;;;;;1.60;1.60;;;;;21.52;100.00;101435.72;4928795;28;44720;-89
2022/08/01 03:21:29;;;;;;;;;1.60;1.60;;;;;21.47;100.00;101430.78;4920924;28;44825;-88
2022/08/01 03:23:58;;;;;;;;;1.00;1.00;;;;;21.47;100.00;101419.13;4937347;28;44812;-89
2022/08/01 03:26:28;;;;;;;;;1.00;1.00;;;;;21.53;100.00;101423.91;4924057;28;45396;-88
2022/08/01 03:28:57;;;;;;;;;0.60;0.60;;;;;21.54;100.00;101429.13;4938241;28;44717;-87
2022/08/01 03:31:25;;;;;;;;;2.00;1.00;;;;;21.51;100.00;101425.91;4934287;28;44805;-89
2022/08/01 03:33:50;;;;;;;;;1.00;1.00;;;;;21.55;100.00;101422.72;4931888;28;44816;-88
2022/08/01 03:36:22;;;;;;;;;1.00;1.00;;;;;21.54;100.00;101429.13;4928217;28;45242;-88
2022/08/01 03:38:51;;;;;;;;;1.00;1.00;;;;;21.52;100.00;101436.56;4930383;28;44745;-89
2022/08/01 03:41:20;;;;;;;;;1.60;0.40;;;;;21.50;100.00;101433.16;4928544;28;45398;-89
2022/08/01 03:43:53;;;;;;;;;2.40;1.20;;;;;21.57;100.00;101436.09;4929995;28;45404;-90
2022/08/01 03:46:26;;;;;;;;;3.00;2.00;;;;;21.61;100.00;101439.31;4948347;28;45121;-88
2022/08/01 03:48:55;;;;;;;;;2.00;2.00;;;;;21.58;100.00;101440.50;4944799;28;44794;-89
2022/08/01 03:51:22;;;;;;;;;1.00;1.00;;;;;21.55;100.00;101438.09;4929526;28;44907;-89
2022/08/01 03:53:51;;;;;;;;;1.80;1.00;;;;;21.53;100.00;101440.13;4935423;28;44908;-89
2022/08/01 03:57:06;;;;;;;;;2.60;1.00;;;;;21.57;100.00;101433.41;4941019;28;45131;-94
2022/08/01 04:02:26;;;;;;;;;1.00;1.00;;;;;21.61;100.00;101434.75;5119563;23;45480;-90
2022/08/01 04:04:51;;;;;;;;;1.60;1.20;;;;;21.64;100.00;101433.59;4902255;29;44835;-91
2022/08/01 04:07:31;;;;;;;;;1.00;1.00;;;;;21.61;100.00;101436.63;4902270;29;45199;-89
2022/08/01 04:09:57;;;;;;;;;0.00;0.00;;;;;21.57;100.00;101432.56;4903021;29;44723;-87
2022/08/01 04:12:24;;;;;;;;;1.25;1.25;;;;;21.54;100.00;101433.69;4895164;29;44869;-90
2022/08/01 04:14:50;;;;;;;;;3.00;1.00;;;;;21.48;100.00;101435.19;4906779;29;45340;-90
2022/08/01 04:17:16;;;;;;;;;0.50;0.50;;;;;21.47;100.00;101436.19;4904644;29;45341;-90
2022/08/01 04:19:43;;;;;;;;;1.00;1.00;;;;;21.53;100.00;101426.59;4905078;29;44770;-90
2022/08/01 04:22:11;;;;;;;;;2.00;1.80;;;;;21.51;100.00;101429.44;4887740;29;44798;-89
2022/08/01 04:24:37;;;;;;;;;0.60;0.60;;;;;21.55;100.00;101421.88;4887420;29;45567;-90
2022/08/01 04:53:03;;;;;;;;;1.00;1.00;;;;;21.56;100.00;101412.75;3295763;23;45387;-90
2022/08/01 04:55:31;;;;;;;;;1.00;1.00;;;;;21.55;100.00;101422.72;4914985;28;45279;-90
2022/08/01 04:57:56;;;;;;;;;1.00;1.00;;;;;21.52;100.00;101424.91;4927619;28;44877;-89
2022/08/01 05:00:22;;;;;;;;;1.00;1.00;;;;;21.55;100.00;101436.25;4917350;28;45351;-88
2022/08/01 05:02:47;;;;;;;;;1.00;1.00;;;;;21.59;100.00;101428.66;4907735;29;44735;-90
2022/08/01 05:05:12;;;;;;;;;1.75;1.75;;;;;21.54;100.00;101425.59;4909975;29;45220;-89
2022/08/01 05:07:38;;;;;;;;;1.00;1.00;;;;;21.47;100.00;101440.75;4895085;29;44930;-89
2022/08/01 05:10:04;;;;;;;;;1.25;1.00;;;;;21.51;100.00;101439.41;4911933;29;45326;-88
2022/08/01 05:12:31;;;;;;;;;0.40;0.40;;;;;21.50;100.00;101435.88;4913985;29;44829;-88
2022/08/01 05:14:57;;;;;;;;;1.00;1.00;;;;;21.43;100.00;101440.22;4913371;29;44611;-89
2022/08/01 05:17:23;;;;;;;;;2.20;1.00;;;;;21.40;100.00;101453.19;4891449;29;44792;-89
2022/08/01 05:19:48;;;;;;;;;4.00;1.00;;;;;21.40;100.00;101456.72;4895690;29;45321;-88
2022/08/01 05:22:14;;;;;;;;;3.00;2.00;;;;;21.40;100.00;101456.72;4896915;29;44794;-89
2022/08/01 05:25:28;;;;;;;;;2.00;1.00;;;;;21.42;100.00;101449.34;4916494;29;44699;-94
2022/08/01 05:27:55;;;;;;;;;1.20;1.00;;;;;21.42;100.00;101460.16;4914461;29;44938;-95
2022/08/01 05:30:31;;;;;;;;;3.00;3.00;;;;;21.39;100.00;101465.00;4883374;29;45142;-94
2022/08/01 05:33:03;;;;;;;;;2.60;1.20;;;;;21.45;100.00;101461.69;4910295;29;44849;-95
2022/08/01 05:35:59;;;;;;;;;0.60;0.60;;;;;21.53;100.00;101449.09;4920736;29;44763;-94
2022/08/01 05:38:51;;;;;;;;;2.00;2.00;;;;;21.50;100.00;101448.53;4920349;29;44877;-93
2022/08/01 05:41:19;;;;;;;;;1.00;1.00;;;;;21.43;100.00;101451.03;4918736;28;45214;-93
2022/08/01 05:44:22;;;;;;;;;1.00;1.00;;;;;21.32;100.00;101450.41;4910710;29;44672;-94
2022/08/01 05:47:32;;;;;;;;;1.00;1.00;;;;;21.37;100.00;101448.97;4850379;29;44893;-93
2022/08/01 05:50:14;;;;;;;;;2.60;1.00;;;;;21.34;100.00;101454.66;4852948;29;44844;-93
2022/08/01 05:53:02;;;;;;;;;1.60;1.60;;;;;21.39;100.00;101449.63;4838880;29;45601;-94
2022/08/01 05:55:38;;;;;;;;;1.00;1.00;;;;;21.44;100.00;101462.69;4853106;29;44779;-94
2022/08/01 05:58:11;;;;;;;;;2.40;2.40;;;;;21.43;100.00;101463.69;4858387;29;44647;-94
2022/08/01 06:00:37;;;;;;;;;1.60;1.60;;;;;21.42;100.00;101461.97;4819974;29;44917;-90
2022/08/01 06:03:02;;;;;;;;;1.00;1.00;;;;;21.45;100.00;101465.22;4845552;29;45394;-90
2022/08/01 06:05:28;;;;;;;;;1.00;1.00;;;;;21.49;100.00;101477.44;4830171;29;45310;-90
2022/08/01 06:07:53;;;;;;;;;1.00;1.00;;;;;21.49;100.00;101466.63;4844905;29;44849;-89
2022/08/01 06:10:19;;;;;;;;;0.00;0.00;;;;;21.48;100.00;101467.63;4846265;29;44879;-89
2022/08/01 06:12:44;;;;;;;;;3.50;2.00;;;;;21.46;100.00;101468.78;4846356;29;45275;-90
2022/08/01 06:15:11;;;;;;;;;1.50;1.00;;;;;21.51;100.00;101463.75;4850414;29;45412;-90
2022/08/01 06:17:37;;;;;;;;;1.60;1.60;;;;;21.52;100.00;101470.88;4850507;29;44789;-90
2022/08/01 06:20:03;;;;;;;;;2.00;2.00;;;;;21.51;100.00;101474.56;4830928;29;44834;-90
2022/08/01 06:22:29;;;;;;;;;1.80;1.80;;;;;21.43;100.00;101469.94;4851376;28;45533;-90
2022/08/01 06:24:54;;;;;;;;;2.00;2.00;;;;;21.48;100.00;101469.50;4908500;28;44805;-89
2022/08/01 06:27:20;;;;;;;;;2.00;2.00;;;;;21.45;100.00;101462.53;4914610;28;45328;-89
2022/08/01 06:29:48;;;;;;;;;1.00;1.00;;;;;21.45;100.00;101473.34;4940289;28;44774;-92
2022/08/01 06:32:24;;;;;;;;;1.20;1.20;;;;;21.39;100.00;101467.72;4941391;28;45540;-94
2022/08/01 06:35:03;;;;;;;;;0.00;0.00;;;;;21.23;100.00;101460.28;4910235;28;44684;-94
2022/08/01 06:37:33;;;;;;;;;2.40;2.40;;;;;21.35;100.00;101469.03;4924275;28;44747;-93
2022/08/01 06:40:55;;;;;;;;;2.00;2.00;;;;;21.40;100.00;101464.00;4942846;28;44785;-94
2022/08/01 06:43:40;;;;;;;;;3.00;2.00;;;;;21.38;100.00;101466.88;4939122;28;45172;-93
2022/08/01 06:46:14;;;;;;;;;1.80;1.80;;;;;21.35;100.00;101477.97;4941113;28;44702;-92
2022/08/01 06:49:02;;;;;;;;;2.00;2.00;;;;;21.46;100.00;101464.22;4925416;28;44739;-94
2022/08/01 06:51:29;;;;;;;;;1.60;1.60;;;;;21.70;100.00;101463.56;5039699;23;44937;-92
2022/08/01 06:54:05;;;;;;;;;2.40;2.00;;;;;21.84;100.00;101462.16;4942539;28;45461;-95
2022/08/01 06:57:00;;;;;;;;;2.00;2.00;;;;;21.78;100.00;101463.63;4942630;28;44686;-93
2022/08/01 06:59:32;;;;;;;;;1.00;1.00;;;;;21.70;100.00;101465.41;4956659;28;44615;-94
2022/08/01 07:10:43;;;;;;;;;2.00;2.00;;;;;21.82;100.00;101472.28;5094988;23;44849;-92
2022/08/01 07:14:03;;;;;;;;;2.00;2.00;;;;;21.99;100.00;101468.66;4932522;28;44829;-93
2022/08/01 07:22:41;;;;;;;;;1.80;1.80;;;;;22.48;100.00;101470.81;4924659;28;44851;-89
2022/08/01 07:25:07;;;;;;;;;6.00;1.25;;;;;22.62;100.00;101463.94;4940688;28;44895;-90
2022/08/01 07:27:34;;;;;;;;;2.00;2.00;;;;;22.55;100.00;101470.03;4924279;28;45253;-89
2022/08/01 07:29:59;;;;;;;;;1.00;1.00;;;;;22.61;100.00;101465.81;4922043;28;44916;-89
2022/08/01 07:32:25;;;;;;;;;1.50;1.00;;;;;22.66;100.00;101470.75;4924014;28;45420;-89
2022/08/01 07:34:51;;;;;;;;;2.00;1.00;;;;;22.88;100.00;101472.00;4921381;28;45018;-90
2022/08/01 07:37:17;;;;;;;;;1.00;1.00;;;;;22.76;100.00;101480.44;4922376;28;46880;-90
2022/08/01 07:39:42;;;;;;;;;2.00;2.00;;;;;22.83;100.00;101478.78;4921109;28;44811;-90
2022/08/01 07:42:08;;;;;;;;;3.00;3.00;;;;;22.83;100.00;101473.34;4943165;28;44914;-90
2022/08/01 07:51:15;;;;;;;;;3.60;2.00;;;;;22.51;100.00;101484.91;4924713;29;44731;-95
2022/08/01 08:02:44;;;;;;;;;3.80;2.60;;;;;21.99;100.00;101501.13;5584913;23;46237;-88
2022/08/01 08:05:09;;;;;;;;;1.00;0.80;;;;;21.95;100.00;101501.63;4931968;28;44793;-88
2022/08/01 08:07:35;;;;;;;;;1.50;1.50;;;;;22.05;100.00;101502.38;4949781;28;44828;-89
2022/08/01 08:10:00;;;;;;;;;3.50;3.50;;;;;22.16;100.00;101504.84;4929974;28;46831;-89
2022/08/01 08:12:26;;;;;;;;;4.75;3.00;;;;;22.19;100.00;101503.66;4932198;28;44914;-89
2022/08/01 08:14:51;;;;;;;;;3.25;3.25;;;;;22.30;100.00;101504.25;4938252;28;44690;-88
2022/08/01 08:17:17;;;;;;;;;5.00;4.00;;;;;22.54;100.00;101497.28;4928907;28;44807;-89
2022/08/01 08:19:44;;;;;;;;;6.00;4.25;;;;;22.75;100.00;101495.00;4923163;28;44995;-89
2022/08/01 08:22:09;;;;;;;;;3.20;3.20;;;;;22.99;100.00;101494.25;4922060;28;44704;-89
2022/08/01 08:24:36;;;;;;;;;3.00;3.00;;;;;23.12;100.00;101488.38;4926351;28;44695;-90
2022/08/01 08:27:02;;;;;;;;;6.20;4.40;;;;;23.24;100.00;101492.44;4924679;28;44832;-89
2022/08/01 08:29:31;;;;;;;;;3.40;3.40;;;;;23.28;100.00;101499.22;4926614;28;45312;-89
2022/08/01 08:31:58;;;;;;;;;2.40;2.40;;;;;23.49;100.00;101487.03;4924271;28;45316;-89
2022/08/01 08:34:24;;;;;;;;;3.00;3.00;;;;;23.61;100.00;101499.25;4924363;28;45177;-90
2022/08/01 08:36:50;;;;;;;;;3.00;1.80;;;;;23.59;100.00;101498.56;4926211;28;45260;-89
2022/08/01 08:39:16;;;;;;;;;2.00;2.00;;;;;23.21;100.00;101502.75;4941358;28;45451;-89
2022/08/01 08:41:44;;;;;;;;;1.25;1.25;;;;;23.09;100.00;101500.38;4957375;28;44930;-93
2022/08/01 08:44:12;;;;;;;;;2.60;2.20;;;;;23.34;100.00;101484.16;4965054;28;44788;-94
2022/08/01 08:46:44;;;;;;;;;2.00;2.00;;;;;23.55;100.00;101484.50;4981081;28;44830;-93
2022/08/01 08:49:12;;;;;;;;;4.60;3.00;;;;;23.45;100.00;101473.00;4964402;28;46660;-92
2022/08/01 08:51:41;;;;;;;;;3.20;3.20;;;;;23.60;100.00;101479.44;4963071;28;44624;-93
2022/08/01 08:54:13;;;;;;;;;3.00;3.00;;;;;24.11;100.00;101471.91;4962468;28;44728;-93
2022/08/01 08:56:40;;;;;;;;;3.20;3.20;;;;;24.65;100.00;101462.25;4961168;28;44824;-94
2022/08/01 08:59:07;;;;;;;;;2.20;2.20;;;;;24.90;100.00;101457.53;4956392;28;45073;-94
2022/08/01 09:01:38;;;;;;;;;3.60;2.00;;;;;25.22;100.00;101449.19;4958169;28;44828;-94
2022/08/01 09:04:11;;;;;;;;;1.20;1.20;;;;;24.91;100.00;101457.38;4972331;28;44719;-94
2022/08/01 09:06:40;;;;;;;;;2.40;2.40;;;;;24.69;100.00;101460.88;4956994;28;44948;-94
2022/08/01 09:09:07;;;;;;;;;1.80;1.80;;;;;24.67;100.00;101458.34;4923523;28;45251;-93
2022/08/01 09:11:33;;;;;;;;;2.60;2.60;;;;;25.02;100.00;101458.81;4946970;28;44810;-94
2022/08/01 09:14:07;;;;;;;;;2.20;2.20;;;;;25.43;100.00;101453.94;4949622;28;44728;-95
2022/08/01 09:16:35;;;;;;;;;4.00;2.40;;;;;25.52;100.00;101458.31;4965427;28;44831;-94
2022/08/01 09:19:16;;;;;;;;;2.80;2.00;;;;;25.66;100.00;101466.69;4946619;28;45159;-89
2022/08/01 09:22:00;;;;;;;;;2.00;1.00;;;;;25.47;100.00;101463.44;4942225;28;44867;-89
2022/08/01 09:24:27;;;;;;;;;3.00;2.00;;;;;25.29;100.00;101473.81;4983877;28;44755;-88
2022/08/01 09:26:54;;;;;;;;;3.20;2.00;;;;;25.05;100.00;101470.19;4968498;28;44815;-90
2022/08/01 09:29:26;;;;;;;;;4.00;3.80;;;;;24.96;100.00;101487.59;4958715;28;45148;-87
2022/08/01 09:31:52;;;;;;;;;2.00;2.00;;;;;24.75;100.00;101482.75;4951849;28;44779;-89
2022/08/01 09:34:25;;;;;;;;;2.00;2.00;;;;;24.54;100.00;101477.09;4947780;28;44730;-90
2022/08/01 09:36:58;;;;;;;;;2.80;2.00;;;;;24.45;100.00;101475.41;4949143;28;44804;-89
2022/08/01 09:39:37;;;;;;;;;0.80;0.60;;;;;24.34;100.00;101477.47;4949682;28;45287;-89
2022/08/01 09:42:22;;;;;;;;;1.00;1.00;;;;;24.11;100.00;101473.78;4953899;28;45481;-89
2022/08/01 09:44:48;;;;;;;;;1.20;1.20;;;;;24.06;100.00;101477.03;4949446;28;45409;-90
2022/08/01 09:47:16;;;;;;;;;1.25;1.00;;;;;23.85;100.00;101476.72;4950166;28;44736;-88
2022/08/01 09:49:44;;;;;;;;;3.40;2.40;;;;;23.52;100.00;101484.84;4964693;28;46728;-94
2022/08/01 09:52:28;;;;;;;;;2.00;2.00;;;;;23.44;100.00;101489.41;4939292;28;44655;-94
2022/08/01 09:55:06;;;;;;;;;2.40;1.80;;;;;23.45;100.00;101491.97;4956062;28;45332;-94
2022/08/01 09:57:37;;;;;;;;;2.20;2.20;;;;;23.30;100.00;101494.47;4940516;28;44880;-94
2022/08/01 10:00:10;;;;;;;;;3.40;3.40;;;;;23.32;100.00;101499.75;4957246;28;45309;-94
2022/08/01 10:06:22;;;;;;;;;1.80;1.80;;;;;23.79;100.00;101478.28;4956135;28;44827;-95
2022/08/01 10:08:48;;;;;;;;;3.00;3.00;;;;;24.35;100.00;101476.44;4938942;28;44944;-89
2022/08/01 10:11:23;;;;;;;;;2.00;2.00;;;;;24.73;100.00;101479.38;4951810;28;45388;-94
2022/08/01 10:17:14;;;;;;;;;3.60;3.00;;;;;25.19;100.00;101484.06;4955431;28;44613;-89
2022/08/01 10:19:41;;;;;;;;;2.00;2.00;;;;;25.30;100.00;101491.81;4946365;28;44865;-89
2022/08/01 10:22:18;;;;;;;;;1.80;1.80;;;;;25.57;100.00;101480.38;4959986;28;46550;-90
2022/08/01 10:24:47;;;;;;;;;2.20;2.20;;;;;25.68;100.00;101490.00;4951333;28;45250;-89
2022/08/01 10:27:15;;;;;;;;;1.60;1.60;;;;;26.16;100.00;101485.13;4950646;28;44642;-89
2022/08/01 10:29:56;;;;;;;;;3.00;2.00;;;;;26.75;100.00;101482.41;4948229;28;44894;-88
2022/08/01 10:32:22;;;;;;;;;1.80;0.40;;;;;27.27;100.00;101488.66;4967627;28;45030;-90
2022/08/01 10:34:50;;;;;;;;;5.60;2.20;;;;;27.39;100.00;101496.16;4950256;28;44639;-89
2022/08/01 10:37:17;;;;;;;;;3.00;3.00;;;;;26.67;100.00;101487.97;4954556;28;44679;-90
2022/08/01 10:39:43;;;;;;;;;4.80;2.80;;;;;26.51;100.00;101477.28;4945419;28;44951;-90
2022/08/01 10:42:10;;;;;;;;;3.00;2.00;;;;;26.56;100.00;101483.84;4943327;28;45186;-90
2022/08/01 10:44:38;;;;;;;;;2.20;2.20;;;;;26.58;100.00;101470.84;4943803;28;44821;-90
2022/08/01 10:47:12;;;;;;;;;4.20;2.00;;;;;26.87;100.00;101471.84;4943698;28;44645;-90
2022/08/01 10:50:06;;;;;;;;;3.00;2.00;;;;;26.95;100.00;101471.72;4943165;28;44686;-89
2022/08/01 10:52:32;;;;;;;;;4.00;4.00;;;;;27.09;100.00;101468.16;4956444;28;45492;-90
2022/08/01 10:55:05;;;;;;;;;2.50;2.50;;;;;27.16;100.00;101479.13;4943016;28;44736;-90
2022/08/01 10:57:45;;;;;;;;;3.60;2.60;;;;;26.63;100.00;101486.63;4961751;28;44763;-90
2022/08/01 11:00:18;;;;;;;;;3.60;3.60;;;;;26.33;100.00;101472.16;4945998;28;44887;-89
2022/08/01 11:03:00;;;;;;;;;3.00;3.00;;;;;26.36;100.00;101474.53;4948914;28;45175;-89
2022/08/01 11:05:28;;;;;;;;;6.00;4.20;;;;;26.54;100.00;101474.16;4944906;28;44752;-91
2022/08/01 11:07:54;;;;;;;;;0.00;0.00;;;;;26.80;100.00;101474.50;4928655;28;44800;-90
2022/08/01 11:10:44;;;;;;;;;4.20;2.80;;;;;27.06;100.00;101465.75;4929466;28;44802;-90
2022/08/01 11:13:11;;;;;;;;;3.80;3.80;;;;;27.32;100.00;101472.56;4926638;28;47268;-90
2022/08/01 11:15:37;;;;;;;;;4.60;4.00;;;;;26.61;100.00;101472.38;4923761;28;45343;-90
2022/08/01 11:18:30;;;;;;;;;2.60;2.00;;;;;26.82;100.00;101477.03;4927097;28;44749;-90
2022/08/01 11:21:00;;;;;;;;;3.80;3.80;;;;;27.04;100.00;101478.75;4927750;28;44750;-90
2022/08/01 11:23:27;;;;;;;;;8.00;6.00;;;;;27.25;100.00;101482.56;4925442;28;44985;-90
2022/08/01 11:25:53;;;;;;;;;5.80;5.80;;;;;27.31;100.00;101476.34;4935562;28;44732;-90
2022/08/01 11:28:23;;;;;;;;;7.75;4.00;;;;;27.44;100.00;101473.75;4936842;28;44737;-89
2022/08/01 11:30:56;;;;;;;;;5.00;5.00;;;;;26.88;100.00;101482.56;4934948;28;44878;-90
2022/08/01 11:33:40;;;;;;;;;4.00;4.00;;;;;26.68;100.00;101480.63;4926471;28;46542;-90
2022/08/01 11:36:45;;;;;;;;;4.20;4.20;;;;;26.61;100.00;101475.94;4926136;28;45454;-89
2022/08/01 11:39:12;;;;;;;;;3.00;3.00;;;;;26.97;100.00;101480.56;4866931;29;44831;-89
2022/08/01 11:41:38;;;;;;;;;5.00;4.40;;;;;27.02;100.00;101469.06;4868821;29;44706;-89
2022/08/01 11:44:09;;;;;;;;;5.00;5.00;;;;;26.77;100.00;101474.88;4873884;29;45041;-90
2022/08/01 11:47:06;;;;;;;;;5.00;5.00;;;;;26.68;100.00;101469.72;4865881;29;45279;-90
2022/08/01 11:49:44;;;;;;;;;5.20;5.20;;;;;26.86;100.00;101467.44;4844459;29;44738;-90
2022/08/01 11:52:23;;;;;;;;;7.60;6.00;;;;;27.53;100.00;101456.19;4844359;29;44841;-90
2022/08/01 11:54:54;;;;;;;;;9.80;7.40;;;;;27.73;100.00;101461.84;4828630;29;45204;-90
2022/08/01 11:57:25;;;;;;;;;12.80;10.40;;;;;27.67;100.00;101454.41;4845442;29;44750;-88
2022/08/01 11:59:53;;;;;;;;;5.40;4.20;;;;;27.58;100.00;101452.88;4846072;29;44740;-89
2022/08/01 12:02:22;;;;;;;;;4.60;4.60;;;;;27.50;100.00;101458.47;4851984;29;44891;-89
2022/08/01 12:04:50;;;;;;;;;5.00;5.00;;;;;27.61;100.00;101455.22;4850508;29;45321;-89
2022/08/01 12:07:17;;;;;;;;;4.60;4.60;;;;;27.26;100.00;101449.63;4852540;29;44787;-89
2022/08/01 12:09:43;;;;;;;;;4.00;4.00;;;;;27.13;100.00;101452.25;4854388;29;44749;-90
2022/08/01 12:12:10;;;;;;;;;13.75;9.00;;;;;27.42;100.00;101452.09;4851395;29;44873;-89
2022/08/01 12:14:38;;;;;;;;;6.40;6.40;;;;;27.14;100.00;101457.50;4851135;29;45291;-90
2022/08/01 12:17:04;;;;;;;;;2.20;2.20;;;;;26.94;100.00;101453.69;4887326;29;45439;-91
2022/08/01 12:19:31;;;;;;;;;3.20;2.80;;;;;26.82;100.00;101452.47;4912647;28;44781;-93
2022/08/01 12:22:12;;;;;;;;;5.80;5.80;;;;;26.92;100.00;101450.28;4964382;28;44883;-93
2022/08/01 12:24:42;;;;;;;;;6.20;5.20;;;;;26.40;100.00;101451.31;4947064;28;45132;-93
2022/08/01 12:27:10;;;;;;;;;4.20;4.20;;;;;26.52;100.00;101454.44;4942969;28;44570;-93
2022/08/01 12:29:43;;;;;;;;;5.60;4.80;;;;;26.55;100.00;101432.25;4940069;28;44713;-94
2022/08/01 12:35:34;;;;;;;;;5.80;4.60;;;;;26.20;100.00;101439.28;4947522;28;44992;-94
2022/08/01 12:38:18;;;;;;;;;6.40;5.40;;;;;26.09;100.00;101425.09;4930320;28;44621;-94
2022/08/01 12:40:50;;;;;;;;;5.60;5.60;;;;;25.75;100.00;101435.66;4963728;28;44726;-93
2022/08/01 12:43:25;;;;;;;;;5.60;4.20;;;;;25.60;100.00;101439.19;4950227;28;44781;-94
2022/08/01 12:46:15;;;;;;;;;7.20;4.80;;;;;25.82;100.00;101428.47;4929847;28;45122;-94
2022/08/01 12:48:46;;;;;;;;;7.40;7.40;;;;;25.97;100.00;101434.78;4956126;28;44615;-94
2022/08/01 12:51:21;;;;;;;;;3.20;2.00;;;;;25.90;100.00;101439.28;4935489;28;44780;-93
2022/08/01 12:53:52;;;;;;;;;6.40;5.00;;;;;25.98;100.00;101433.75;4934885;28;44925;-93
2022/08/01 12:56:32;;;;;;;;;6.00;5.00;;;;;25.82;100.00;101452.94;4958989;28;45137;-93
2022/08/01 12:59:19;;;;;;;;;4.60;4.40;;;;;25.88;100.00;101444.06;4948964;28;44689;-93
2022/08/01 13:01:51;;;;;;;;;6.20;6.20;;;;;26.19;100.00;101438.44;4948639;28;44781;-92
2022/08/01 13:04:17;;;;;;;;;7.80;5.20;;;;;26.36;100.00;101439.09;4939290;28;44930;-93
2022/08/01 13:06:46;;;;;;;;;5.00;5.00;;;;;26.22;100.00;101454.41;4936509;28;45151;-94
2022/08/01 13:09:32;;;;;;;;;5.40;5.40;;;;;26.30;100.00;101454.34;4937710;28;44756;-93
2022/08/01 13:11:57;;;;;;;;;5.60;3.80;;;;;26.51;100.00;101433.66;4954426;28;44793;-93
2022/08/01 13:14:38;;;;;;;;;2.20;1.80;;;;;26.63;100.00;101435.69;4934735;28;44911;-94
2022/08/01 13:17:20;;;;;;;;;4.00;4.00;;;;;27.04;100.00;101443.31;4931823;28;45169;-95
2022/08/01 13:19:47;;;;;;;;;9.40;5.60;;;;;27.51;100.00;101446.50;4948715;28;44705;-94
2022/08/01 13:22:15;;;;;;;;;2.00;2.00;;;;;27.83;100.00;101445.94;4949461;28;44679;-94
2022/08/01 13:25:15;;;;;;;;;5.00;5.00;;;;;28.47;98.96;101447.63;4935235;28;44795;-94
2022/08/01 13:31:10;;;;;;;;;5.00;5.00;;;;;28.35;100.00;101449.25;4932194;28;44810;-95